Meteo Giornale » Osservazioni meteo Italia » Bari-Palese Macchie

ore: 05:20 - Osservazioni Meteo Bari-Palese Macchie
Lat. 41° 8' N Lon. 16° 47' E Alt. 34 metri s.l.m.

sereno Europe/Rome

23 °C

Sereno

Temp. 24 Ore

22 °C

31 °C

Nord

3.7 Km/h

Dew point 19 °C

Umidità 78 %

Visibilità  10 Km

Il sole sorge alle ore 06:04

Il sole tramonta alle ore 19:49

Data e Ora Cielo e Fenomeni T °C DP °C Um. % Pres. hPa Vis. km Vento km/h
Oggi h: 05:20 sereno Sereno 23 19 78 1012 10 N 3.7
Oggi h: 04:50 sereno Sereno 23 19 78 1012 10 E/NE 7.4
Oggi h: 04:20 sereno Sereno 23 19 78 1012 10 N 1.8
Oggi h: 03:50 sereno Sereno 24 19 73 1013 10 N 0
Oggi h: 02:20 sereno Sereno 24 19 73 1012 10 S/SO 7.4
Oggi h: 01:50 sereno Sereno 24 20 78 1013 10 N 5.5
Oggi h: 01:20 sereno Sereno 24 20 78 1013 10 N 3.7
Oggi h: 00:50 sereno Sereno 24 20 78 1013 10 N 1.8
Oggi h: 00:20 sereno Sereno 25 20 73 1013 10 N 5.5
Ieri h: 23:50 sereno Sereno 25 20 73 1013 10 N 5.5
Ieri h: 23:20 sereno Sereno 26 20 69 1013 10 N 5.5
Ieri h: 22:50 sereno Sereno 26 19 65 1013 10 N 5.5
Ieri h: 22:20 sereno Sereno 26 19 65 1013 10 N 5.5
Ieri h: 21:50 sereno Sereno 27 18 57 1013 10 N 5.5
Ieri h: 21:20 sereno Sereno 27 18 57 1013 10 E/SE 7.4
Ieri h: 20:50 sereno Sereno 27 19 61 1013 10 N 5.5
Ieri h: 20:20 sereno Sereno 27 20 65 1013 10 N 5.5
Ieri h: 19:50 sereno Sereno 28 21 65 1012 10 E 7.4
Ieri h: 19:20 sereno Sereno 28 21 65 1013 10 E/NE 11.1
Ieri h: 18:50 sereno Sereno 29 20 58 1012 10 E/NE 13
Ieri h: 18:20 sereno Sereno 29 17 48 1013 10 E/NE 13
Ieri h: 17:50 sereno Sereno 30 19 51 1013 10 E/NE 14.8
Ieri h: 17:20 sereno Sereno 30 19 51 1013 10 E/NE 11.1
Ieri h: 16:50 sereno Sereno 30 20 55 1013 10 E/NE 11.1
Ieri h: 16:20 sereno Sereno 30 20 55 1013 10 E/NE 11.1
Ieri h: 15:50 sereno Sereno 30 18 48 1013 10 E/NE 13
Ieri h: 15:20 sereno Sereno 30 21 58 1013 10 NE 13
Ieri h: 14:50 sereno Sereno 31 21 55 1013 10 N/NE 9.3
Ieri h: 14:20 sereno Sereno 30 21 58 1013 10 N/NE 11.1
Ieri h: 13:50 sereno Sereno 30 20 55 1013 10 N/NE 11.1
Ieri h: 13:20 sereno Sereno 30 22 62 1013 10 N/NE 11.1
Ieri h: 12:50 sereno Sereno 30 23 66 1013 10 N/NE 11.1
Ieri h: 12:20 sereno Sereno 29 22 66 1013 10 N/NE 13
Ieri h: 11:50 sereno Sereno 29 23 70 1013 10 N/NE 14.8
Ieri h: 11:20 sereno Sereno 29 22 66 1013 10 N 13
Ieri h: 10:50 sereno Sereno 29 22 66 1013 10 N 13
Ieri h: 10:20 sereno Sereno 29 22 66 1013 10 N/NO 13
Ieri h: 09:50 sereno Sereno 29 21 62 1013 10 N/NO 13
Ieri h: 09:20 sereno Sereno 29 21 62 1013 10 N/NO 13
Ieri h: 08:50 sereno Sereno 28 21 65 1013 10 O/NO 13
Ieri h: 08:20 sereno Sereno 27 21 69 1012 10 O/NO 9.3
Ieri h: 07:50 sereno Sereno 26 20 69 1012 10 N 5.5
Ieri h: 07:20 sereno Sereno 24 20 78 1012 10 N 3.7
Ieri h: 06:50 sereno Sereno 23 20 83 1012 10 O 7.4
Ieri h: 06:20 sereno Sereno 22 19 83 1012 10 O/SO 11.1